METAR Data
IDs: Format: Raw Decoded Include TAF

Data at: 0237 UTC 29 Nov 2020

METAR for:KALO (Waterloo Rgnl, IA, US)
Text:KALO 290154Z AUTO 22011KT 10SM CLR 07/01 A2997 RMK AO2 SLP155 T00720006
Temperature: 7.2°C ( 45°F)
Dewpoint: 0.6°C ( 33°F) [RH = 63%]
Pressure (altimeter):29.97 inches Hg (1015.0 mb) [Sea level pressure: 1015.5 mb]
Winds:from the SW (220 degrees) at 13 MPH (11 knots; 5.7 m/s)
Visibility:10 or more sm (16+ km)
Ceiling:at least 12,000 feet AGL
Clouds:sky clear below 12,000 feet AGL
QC Flag:automated observation with no human augmentation